createdAt,value
2022-12-01T00:01:21.651Z,3.80
2022-12-01T00:03:49.503Z,3.90
2022-12-01T00:06:19.643Z,3.80
2022-12-01T00:09:08.043Z,3.80
2022-12-01T00:11:36.784Z,3.80
2022-12-01T00:14:05.227Z,3.80
2022-12-01T00:16:33.193Z,3.80
2022-12-01T00:19:00.635Z,3.80
2022-12-01T00:21:27.862Z,3.80
2022-12-01T00:23:57.380Z,3.80
2022-12-01T00:26:26.094Z,3.80
2022-12-01T00:28:56.701Z,3.80
2022-12-01T00:31:24.042Z,3.80
2022-12-01T00:33:51.353Z,3.80
2022-12-01T00:36:19.104Z,3.80
2022-12-01T00:38:47.293Z,3.80
2022-12-01T00:41:14.813Z,3.80
2022-12-01T00:43:41.987Z,3.80
2022-12-01T00:46:09.291Z,3.80
2022-12-01T00:48:36.507Z,3.80
2022-12-01T00:51:04.364Z,3.80
2022-12-01T00:53:31.973Z,3.80
2022-12-01T00:55:59.185Z,3.80
2022-12-01T00:58:26.390Z,3.80
2022-12-01T01:01:00.995Z,3.80
2022-12-01T01:03:29.576Z,3.80
2022-12-01T01:06:02.803Z,3.80
2022-12-01T01:08:30.230Z,3.80
2022-12-01T01:10:59.759Z,3.80
2022-12-01T01:13:27.359Z,3.80
2022-12-01T01:16:06.288Z,3.80
2022-12-01T01:18:33.920Z,3.80
2022-12-01T01:21:04.733Z,3.80
2022-12-01T01:23:32.221Z,3.70
2022-12-01T01:26:04.844Z,3.80
2022-12-01T01:28:32.284Z,3.70
2022-12-01T01:31:00.257Z,3.80
2022-12-01T01:33:27.551Z,3.70
2022-12-01T01:35:59.636Z,3.70
2022-12-01T01:38:27.556Z,3.70
2022-12-01T01:40:55.180Z,3.70
2022-12-01T01:43:45.636Z,3.70
2022-12-01T01:46:16.667Z,3.70
2022-12-01T01:48:57.480Z,3.70
2022-12-01T01:51:32.351Z,3.70
2022-12-01T01:54:05.767Z,3.70
2022-12-01T01:56:34.866Z,3.70
2022-12-01T01:59:02.607Z,3.70
2022-12-01T02:01:31.237Z,3.70
2022-12-01T02:03:58.620Z,3.70
2022-12-01T02:06:26.231Z,3.70
2022-12-01T02:08:53.418Z,3.70
2022-12-01T02:11:53.336Z,3.70
2022-12-01T02:14:24.944Z,3.70
2022-12-01T02:17:09.534Z,3.70
2022-12-01T02:19:58.999Z,3.70
2022-12-01T02:22:35.311Z,3.60
2022-12-01T02:25:39.437Z,3.70
2022-12-01T02:28:34.837Z,3.60
2022-12-01T02:31:16.192Z,3.60
2022-12-01T02:34:10.213Z,3.60
2022-12-01T02:36:48.983Z,3.60
2022-12-01T02:39:30.398Z,3.60
2022-12-01T02:42:09.304Z,3.60
2022-12-01T02:44:44.385Z,3.60
2022-12-01T02:47:17.115Z,3.60
2022-12-01T02:49:49.280Z,3.60
2022-12-01T02:52:18.671Z,3.60
2022-12-01T02:54:48.368Z,3.60
2022-12-01T02:57:16.709Z,3.60
2022-12-01T02:59:49.092Z,3.60
2022-12-01T03:02:42.820Z,3.60
2022-12-01T03:05:18.637Z,3.60
2022-12-01T03:08:01.247Z,3.60
2022-12-01T03:10:51.919Z,3.60
2022-12-01T03:13:37.255Z,3.60
2022-12-01T03:16:11.694Z,3.60
2022-12-01T03:18:48.879Z,3.60
2022-12-01T03:21:35.012Z,3.60
2022-12-01T03:24:07.782Z,3.60
2022-12-01T03:26:37.306Z,3.60
2022-12-01T03:29:17.837Z,3.50
2022-12-01T03:31:50.567Z,3.60
2022-12-01T03:34:37.283Z,3.60
2022-12-01T03:37:10.052Z,3.50
2022-12-01T03:39:39.983Z,3.50
2022-12-01T03:42:19.776Z,3.50
2022-12-01T03:44:51.595Z,3.50
2022-12-01T03:47:22.285Z,3.40
2022-12-01T03:49:52.133Z,3.50
2022-12-01T03:52:19.279Z,3.40
2022-12-01T03:55:16.118Z,3.40
2022-12-01T03:58:02.700Z,3.40
2022-12-01T04:00:31.280Z,3.40
2022-12-01T04:03:03.071Z,3.40
2022-12-01T04:05:32.390Z,3.40
2022-12-01T04:08:00.760Z,3.40
2022-12-01T04:10:28.057Z,3.40
2022-12-01T04:12:59.248Z,3.40
2022-12-01T04:15:27.337Z,3.40
2022-12-01T04:17:54.695Z,3.40
2022-12-01T04:20:22.087Z,3.30
2022-12-01T04:22:49.594Z,3.30
2022-12-01T04:25:16.883Z,3.40
2022-12-01T04:27:45.985Z,3.40
2022-12-01T04:30:13.814Z,3.40
2022-12-01T04:32:43.216Z,3.30
2022-12-01T04:35:12.166Z,3.40
2022-12-01T04:37:40.060Z,3.30
2022-12-01T04:40:08.185Z,3.30
2022-12-01T04:42:35.527Z,3.30
2022-12-01T04:45:03.569Z,3.30
2022-12-01T04:47:31.005Z,3.30
2022-12-01T04:49:58.164Z,3.30
2022-12-01T04:52:28.353Z,3.30
2022-12-01T04:54:57.861Z,3.30
2022-12-01T04:57:26.245Z,3.30
2022-12-01T04:59:53.428Z,3.30
2022-12-01T05:02:20.926Z,3.30
2022-12-01T05:04:48.480Z,3.30
2022-12-01T05:07:15.672Z,3.20
2022-12-01T05:09:43.182Z,3.20
2022-12-01T05:14:52.755Z,3.20
2022-12-01T05:17:20.036Z,3.20
2022-12-01T05:20:07.657Z,3.20
2022-12-01T05:23:03.894Z,3.20
2022-12-01T05:25:22.050Z,3.20
2022-12-01T05:27:49.268Z,3.20
2022-12-01T05:30:17.093Z,3.20
2022-12-01T05:32:44.690Z,3.20
2022-12-01T05:35:11.860Z,3.20
2022-12-01T05:37:39.061Z,3.10
2022-12-01T05:40:07.037Z,3.20
2022-12-01T05:42:34.250Z,3.20
2022-12-01T05:45:05.893Z,3.20
2022-12-01T05:47:33.142Z,3.10
2022-12-01T05:50:05.487Z,3.10
2022-12-01T05:52:37.496Z,3.10
2022-12-01T05:55:05.665Z,3.10
2022-12-01T05:57:33.511Z,3.10
2022-12-01T06:00:00.988Z,3.10
2022-12-01T06:02:28.212Z,3.10
2022-12-01T06:04:55.397Z,3.10
2022-12-01T06:07:25.117Z,3.10
2022-12-01T06:09:52.997Z,3.10
2022-12-01T06:12:20.250Z,3.10
2022-12-01T06:14:47.425Z,3.10
2022-12-01T06:17:14.665Z,3.10
2022-12-01T06:19:43.419Z,3.10
2022-12-01T06:22:11.226Z,3.10
2022-12-01T06:24:38.476Z,3.10
2022-12-01T06:27:05.922Z,3.10
2022-12-01T06:29:34.788Z,3.10
2022-12-01T06:32:05.236Z,3.10
2022-12-01T06:34:32.470Z,3.10
2022-12-01T06:36:59.631Z,3.10
2022-12-01T06:39:26.803Z,3.10
2022-12-01T06:41:53.958Z,3.10
2022-12-01T06:44:21.147Z,3.00
2022-12-01T06:46:52.670Z,3.10
2022-12-01T06:49:20.189Z,3.10
2022-12-01T06:51:47.833Z,3.10
2022-12-01T06:54:15.304Z,3.10
2022-12-01T06:56:45.962Z,3.10
2022-12-01T06:59:13.618Z,3.00
2022-12-01T07:01:41.060Z,3.10
2022-12-01T07:04:08.452Z,3.00
2022-12-01T07:06:35.681Z,3.00
2022-12-01T07:09:03.448Z,3.10
2022-12-01T07:11:32.177Z,3.00
2022-12-01T07:13:59.447Z,3.10
2022-12-01T07:16:26.630Z,3.10
2022-12-01T07:18:53.911Z,3.10
2022-12-01T07:21:21.349Z,3.10
2022-12-01T07:23:48.485Z,3.10
2022-12-01T07:26:17.971Z,3.10
2022-12-01T07:28:48.441Z,3.10
2022-12-01T07:31:18.355Z,3.10
2022-12-01T07:33:45.994Z,3.10
2022-12-01T07:36:14.262Z,3.10
2022-12-01T07:38:41.919Z,3.10
2022-12-01T07:41:11.889Z,3.10
2022-12-01T07:43:39.636Z,3.10
2022-12-01T07:46:17.176Z,3.10
2022-12-01T07:48:48.754Z,3.20
2022-12-01T07:51:16.745Z,3.20
2022-12-01T07:53:45.871Z,3.20
2022-12-01T07:56:13.648Z,3.20
2022-12-01T07:58:40.986Z,3.20
2022-12-01T08:01:10.790Z,3.20
2022-12-01T08:03:39.723Z,3.30
2022-12-01T08:06:08.142Z,3.30
2022-12-01T08:08:37.070Z,3.30
2022-12-01T08:11:07.451Z,3.30
2022-12-01T08:13:34.625Z,3.30
2022-12-01T08:16:06.572Z,3.40
2022-12-01T08:18:35.689Z,3.40
2022-12-01T08:21:03.767Z,3.40
2022-12-01T08:23:31.021Z,3.40
2022-12-01T08:26:03.042Z,3.50
2022-12-01T08:28:30.447Z,3.50
2022-12-01T08:30:58.242Z,3.50
2022-12-01T08:33:25.391Z,3.50
2022-12-01T08:35:52.748Z,3.60
2022-12-01T08:38:20.366Z,3.60
2022-12-01T08:40:47.551Z,3.60
2022-12-01T08:43:41.439Z,3.70
2022-12-01T08:46:02.281Z,3.70
2022-12-01T08:48:30.039Z,3.70
2022-12-01T08:51:06.599Z,3.70
2022-12-01T08:53:35.752Z,3.70
2022-12-01T08:56:15.961Z,3.80
2022-12-01T08:58:43.423Z,3.80
2022-12-01T09:01:13.358Z,3.80
2022-12-01T09:03:41.502Z,3.90
2022-12-01T09:06:17.120Z,3.90
2022-12-01T09:08:44.625Z,4.00
2022-12-01T09:11:17.348Z,4.10
2022-12-01T09:13:49.922Z,4.10
2022-12-01T09:16:20.302Z,4.10
2022-12-01T09:18:47.924Z,4.10
2022-12-01T09:21:24.745Z,4.10
2022-12-01T09:23:52.581Z,4.10
2022-12-01T09:26:20.280Z,4.10
2022-12-01T09:28:49.388Z,4.10
2022-12-01T09:31:18.309Z,4.00
2022-12-01T09:33:45.998Z,4.00
2022-12-01T09:36:13.565Z,4.10
2022-12-01T09:38:40.888Z,4.10
2022-12-01T09:41:30.851Z,4.10
2022-12-01T09:44:14.390Z,4.10
2022-12-01T09:46:46.790Z,4.10
2022-12-01T09:49:19.566Z,4.00
2022-12-01T09:51:46.772Z,4.10
2022-12-01T09:54:14.805Z,4.10
2022-12-01T09:56:46.020Z,4.20
2022-12-01T09:59:24.039Z,4.20
2022-12-01T10:01:55.467Z,4.20
2022-12-01T10:04:45.036Z,4.20
2022-12-01T10:07:24.210Z,4.30
2022-12-01T10:10:31.047Z,4.30
2022-12-01T10:12:58.284Z,4.30
2022-12-01T10:15:30.923Z,4.30
2022-12-01T10:18:26.744Z,4.30
2022-12-01T10:21:23.498Z,4.30
2022-12-01T10:24:12.422Z,4.30
2022-12-01T10:26:59.433Z,4.30
2022-12-01T10:29:51.770Z,4.30
2022-12-01T10:32:24.773Z,4.40
2022-12-01T10:34:52.005Z,4.40
2022-12-01T10:37:22.788Z,4.50
2022-12-01T10:39:52.728Z,4.50
2022-12-01T10:42:40.937Z,4.50
2022-12-01T10:45:23.028Z,4.60
2022-12-01T10:48:12.931Z,4.60
2022-12-01T10:50:40.939Z,4.70
2022-12-01T10:53:39.981Z,4.70
2022-12-01T10:56:20.431Z,4.70
2022-12-01T10:58:56.844Z,4.80
2022-12-01T11:01:28.747Z,4.80
2022-12-01T11:04:01.410Z,4.90
2022-12-01T11:06:30.979Z,5.00
2022-12-01T11:09:04.625Z,5.10
2022-12-01T11:11:31.769Z,5.00
2022-12-01T11:14:02.305Z,4.90
2022-12-01T11:16:44.867Z,4.90
2022-12-01T11:19:34.406Z,4.80
2022-12-01T11:22:21.399Z,4.70
2022-12-01T11:25:04.619Z,4.60
2022-12-01T11:27:57.482Z,4.60
2022-12-01T11:30:27.259Z,4.50
2022-12-01T11:32:57.981Z,4.50
2022-12-01T11:35:28.871Z,4.40
2022-12-01T11:38:28.685Z,4.40
2022-12-01T11:40:51.624Z,4.40
2022-12-01T11:43:28.264Z,4.50
2022-12-01T11:45:58.229Z,4.40
2022-12-01T11:48:27.866Z,4.40
2022-12-01T11:51:21.430Z,4.40
2022-12-01T11:53:49.488Z,4.40
2022-12-01T11:56:28.470Z,4.30
2022-12-01T11:59:04.739Z,4.20
2022-12-01T12:01:59.806Z,4.10
2022-12-01T12:04:58.873Z,3.90
2022-12-01T12:07:54.031Z,3.90
2022-12-01T12:10:36.408Z,3.90
2022-12-01T12:13:15.365Z,3.80
2022-12-01T12:16:01.071Z,3.70
2022-12-01T12:18:44.442Z,3.70
2022-12-01T12:21:21.930Z,3.60
2022-12-01T12:24:08.096Z,3.60
2022-12-01T12:26:50.240Z,3.50
2022-12-01T12:29:42.853Z,3.50
2022-12-01T12:32:30.796Z,3.50
2022-12-01T12:35:22.162Z,3.40
2022-12-01T12:38:20.827Z,3.40
2022-12-01T12:41:00.456Z,3.40
2022-12-01T12:43:51.186Z,3.30
2022-12-01T12:46:57.510Z,3.30
2022-12-01T12:49:36.698Z,3.30
2022-12-01T12:52:16.566Z,3.20
2022-12-01T12:54:55.172Z,3.10
2022-12-01T12:57:37.844Z,3.10
2022-12-01T13:00:18.139Z,3.10
2022-12-01T13:03:06.147Z,3.00
2022-12-01T13:05:41.544Z,3.00
2022-12-01T13:08:13.787Z,3.00
2022-12-01T13:10:57.996Z,3.00
2022-12-01T13:13:51.017Z,3.00
2022-12-01T13:16:30.313Z,3.00
2022-12-01T13:19:07.244Z,3.00
2022-12-01T13:21:39.654Z,2.90
2022-12-01T13:24:22.826Z,2.90
2022-12-01T13:27:10.853Z,2.90
2022-12-01T13:29:47.141Z,2.90
2022-12-01T13:32:40.809Z,2.80
2022-12-01T13:35:31.615Z,2.70
2022-12-01T13:38:22.531Z,2.70
2022-12-01T13:40:50.183Z,2.70
2022-12-01T13:43:22.946Z,2.70
2022-12-01T13:45:51.401Z,2.70
2022-12-01T13:48:48.246Z,2.60
2022-12-01T13:51:15.935Z,2.60
2022-12-01T13:54:02.932Z,2.50
2022-12-01T13:56:46.708Z,2.50
2022-12-01T13:59:42.276Z,2.50
2022-12-01T14:02:21.402Z,2.50
2022-12-01T14:04:49.184Z,2.50
2022-12-01T14:07:23.074Z,2.50
2022-12-01T14:09:54.623Z,2.50
2022-12-01T14:12:28.514Z,2.50
2022-12-01T14:15:02.557Z,2.50
2022-12-01T14:17:37.017Z,2.50
2022-12-01T14:20:18.650Z,2.50
2022-12-01T14:22:50.158Z,2.50
2022-12-01T14:25:20.455Z,2.40
2022-12-01T14:27:57.508Z,2.40
2022-12-01T14:30:40.535Z,2.40
2022-12-01T14:33:38.752Z,2.40
2022-12-01T14:36:22.832Z,2.40
2022-12-01T14:38:59.310Z,2.30
2022-12-01T14:41:34.069Z,2.40
2022-12-01T14:44:09.645Z,2.40
2022-12-01T14:46:45.588Z,2.40
2022-12-01T14:49:17.781Z,2.40
2022-12-01T14:51:49.799Z,2.40
2022-12-01T14:54:24.931Z,2.40
2022-12-01T14:56:55.548Z,2.40
2022-12-01T14:59:26.166Z,2.40
2022-12-01T15:01:58.145Z,2.40
2022-12-01T15:04:26.055Z,2.40
2022-12-01T15:06:57.213Z,2.40
2022-12-01T15:09:34.058Z,2.40
2022-12-01T15:12:07.503Z,2.30
2022-12-01T15:14:35.027Z,2.30
2022-12-01T15:17:05.073Z,2.30
2022-12-01T15:19:40.926Z,2.30
2022-12-01T15:22:16.305Z,2.30
2022-12-01T15:24:44.408Z,2.20
2022-12-01T15:27:29.770Z,2.30
2022-12-01T15:29:58.552Z,2.20
2022-12-01T15:32:27.028Z,2.20
2022-12-01T15:34:55.865Z,2.20
2022-12-01T15:37:26.556Z,2.20
2022-12-01T15:40:11.953Z,2.20
2022-12-01T15:42:43.919Z,2.20
2022-12-01T15:45:22.522Z,2.20
2022-12-01T15:47:51.838Z,2.20
2022-12-01T15:50:48.671Z,2.20
2022-12-01T15:53:33.350Z,2.20
2022-12-01T15:56:04.168Z,2.10
2022-12-01T15:58:36.095Z,2.10
2022-12-01T16:01:12.651Z,2.10
2022-12-01T16:03:55.970Z,2.10
2022-12-01T16:06:27.240Z,2.10
2022-12-01T16:09:07.306Z,2.10
2022-12-01T16:11:34.566Z,2.10
2022-12-01T16:14:19.473Z,2.10
2022-12-01T16:16:48.378Z,2.10
2022-12-01T16:19:18.611Z,2.10
2022-12-01T16:21:54.200Z,2.10
2022-12-01T16:24:29.554Z,2.10
2022-12-01T16:27:01.325Z,2.10
2022-12-01T16:29:31.298Z,2.10
2022-12-01T16:32:20.398Z,2.10
2022-12-01T16:34:49.441Z,2.10
2022-12-01T16:37:17.436Z,2.10
2022-12-01T16:39:44.778Z,2.10
2022-12-01T16:42:17.620Z,2.10
2022-12-01T16:44:46.313Z,2.10
2022-12-01T16:47:15.030Z,2.10
2022-12-01T16:49:42.609Z,2.10
2022-12-01T16:54:58.559Z,2.10
2022-12-01T16:57:25.673Z,2.10
2022-12-01T16:59:52.837Z,2.10
2022-12-01T17:02:20.061Z,2.10
2022-12-01T17:04:47.321Z,2.10
2022-12-01T17:07:14.915Z,2.10
2022-12-01T17:09:42.047Z,2.10
2022-12-01T17:12:09.642Z,2.10
2022-12-01T17:14:37.169Z,2.10
2022-12-01T17:17:04.548Z,2.10
2022-12-01T17:19:31.727Z,2.10
2022-12-01T17:21:58.879Z,2.10
2022-12-01T17:24:30.042Z,2.20
2022-12-01T17:26:57.197Z,2.10
2022-12-01T17:29:24.421Z,2.20
2022-12-01T17:31:52.589Z,2.20
2022-12-01T17:34:19.772Z,2.20
2022-12-01T17:36:47.530Z,2.10
2022-12-01T17:39:15.041Z,2.20
2022-12-01T17:41:42.635Z,2.20
2022-12-01T17:44:10.023Z,2.20
2022-12-01T17:46:38.469Z,2.20
2022-12-01T17:49:09.537Z,2.20
2022-12-01T17:51:37.084Z,2.20
2022-12-01T17:54:04.722Z,2.20
2022-12-01T17:56:32.097Z,2.20
2022-12-01T17:58:59.271Z,2.20
2022-12-01T18:01:30.272Z,2.20
2022-12-01T18:03:58.898Z,2.20
2022-12-01T18:06:26.903Z,2.20
2022-12-01T18:08:54.310Z,2.20
2022-12-01T18:11:22.760Z,2.10
2022-12-01T18:13:52.950Z,2.20
2022-12-01T18:16:24.234Z,2.10
2022-12-01T18:18:52.956Z,2.20
2022-12-01T18:21:22.700Z,2.20
2022-12-01T18:23:51.811Z,2.20
2022-12-01T18:26:21.879Z,2.10
2022-12-01T18:29:04.927Z,2.10
2022-12-01T18:31:35.375Z,2.10
2022-12-01T18:34:03.787Z,2.20
2022-12-01T18:36:32.807Z,2.20
2022-12-01T18:39:01.001Z,2.20
2022-12-01T18:41:28.328Z,2.20
2022-12-01T18:43:55.687Z,2.20
2022-12-01T18:46:23.191Z,2.20
2022-12-01T18:48:53.206Z,2.10
2022-12-01T18:51:21.267Z,2.20
2022-12-01T18:53:48.581Z,2.20
2022-12-01T18:56:15.797Z,2.10
2022-12-01T18:58:44.742Z,2.10
2022-12-01T19:01:23.018Z,2.20
2022-12-01T19:03:50.823Z,2.20
2022-12-01T19:06:19.200Z,2.20
2022-12-01T19:08:47.652Z,2.10
2022-12-01T19:11:15.621Z,2.20
2022-12-01T19:13:43.021Z,2.10
2022-12-01T19:16:16.570Z,2.10
2022-12-01T19:18:44.491Z,2.10
2022-12-01T19:21:14.106Z,2.10
2022-12-01T19:23:41.747Z,2.20
2022-12-01T19:26:12.398Z,2.10
2022-12-01T19:28:42.037Z,2.10
2022-12-01T19:31:12.390Z,2.10
2022-12-01T19:33:40.113Z,2.10
2022-12-01T19:36:12.479Z,2.10
2022-12-01T19:38:40.480Z,2.10
2022-12-01T19:41:09.234Z,2.10
2022-12-01T19:43:37.462Z,2.10
2022-12-01T19:46:09.902Z,2.10
2022-12-01T19:48:37.329Z,2.10
2022-12-01T19:51:05.232Z,2.10
2022-12-01T19:53:33.984Z,2.10
2022-12-01T19:56:05.248Z,2.10
2022-12-01T19:58:34.827Z,2.10
2022-12-01T20:01:08.240Z,2.10
2022-12-01T20:03:37.657Z,2.10
2022-12-01T20:06:14.515Z,2.10
2022-12-01T20:08:42.280Z,2.10
2022-12-01T20:11:11.645Z,2.10
2022-12-01T20:13:41.927Z,2.10
2022-12-01T20:16:15.382Z,2.10
2022-12-01T20:18:43.608Z,2.10
2022-12-01T20:21:17.642Z,2.10
2022-12-01T20:23:48.677Z,2.10
2022-12-01T20:26:18.241Z,2.10
2022-12-01T20:28:47.640Z,2.10
2022-12-01T20:31:18.772Z,2.10
2022-12-01T20:33:47.835Z,2.10
2022-12-01T20:36:15.650Z,2.10
2022-12-01T20:38:43.508Z,2.10
2022-12-01T20:41:12.030Z,2.10
2022-12-01T20:43:39.231Z,2.10
2022-12-01T20:46:06.909Z,2.00
2022-12-01T20:48:34.627Z,2.00
2022-12-01T20:51:03.880Z,2.00
2022-12-01T20:53:31.542Z,2.10
2022-12-01T20:56:06.105Z,2.00
2022-12-01T20:58:37.447Z,2.00
2022-12-01T21:01:10.504Z,2.00
2022-12-01T21:03:39.608Z,2.00
2022-12-01T21:06:08.259Z,2.00
2022-12-01T21:08:40.488Z,2.00
2022-12-01T21:11:18.855Z,2.00
2022-12-01T21:13:46.833Z,2.00
2022-12-01T21:16:27.517Z,2.00
2022-12-01T21:19:13.336Z,2.00
2022-12-01T21:21:41.530Z,2.00
2022-12-01T21:24:16.949Z,2.00
2022-12-01T21:27:02.025Z,2.00
2022-12-01T21:29:41.870Z,2.00
2022-12-01T21:32:31.588Z,1.90
2022-12-01T21:35:13.661Z,2.00
2022-12-01T21:37:40.941Z,1.90
2022-12-01T21:40:26.169Z,1.90
2022-12-01T21:42:54.139Z,1.90
2022-12-01T21:45:31.064Z,1.90
2022-12-01T21:48:06.043Z,1.90
2022-12-01T21:50:33.178Z,1.90
2022-12-01T21:53:01.019Z,1.90
2022-12-01T21:55:33.530Z,1.90
2022-12-01T21:58:01.137Z,1.90
2022-12-01T22:00:36.767Z,1.80
2022-12-01T22:03:23.002Z,1.80
2022-12-01T22:06:21.262Z,1.80
2022-12-01T22:08:42.663Z,1.80
2022-12-01T22:11:18.607Z,1.80
2022-12-01T22:14:13.907Z,1.80
2022-12-01T22:16:44.309Z,1.80
2022-12-01T22:19:15.089Z,1.80
2022-12-01T22:22:11.038Z,1.80
2022-12-01T22:24:56.411Z,1.80
2022-12-01T22:27:39.219Z,1.80
2022-12-01T22:30:06.362Z,1.70
2022-12-01T22:32:47.783Z,1.80
2022-12-01T22:35:45.650Z,1.70
2022-12-01T22:38:23.904Z,1.70
2022-12-01T22:40:58.467Z,1.80
2022-12-01T22:43:42.924Z,1.70
2022-12-01T22:46:26.820Z,1.70
2022-12-01T22:49:06.357Z,1.70
2022-12-01T22:51:57.275Z,1.70
2022-12-01T22:54:32.285Z,1.80
2022-12-01T22:57:13.488Z,1.80
2022-12-01T22:59:43.374Z,1.70
2022-12-01T23:02:27.481Z,1.80
2022-12-01T23:05:01.069Z,1.80
2022-12-01T23:07:33.058Z,1.70
2022-12-01T23:10:03.347Z,1.70
2022-12-01T23:12:32.847Z,1.70
2022-12-01T23:15:27.514Z,1.70
2022-12-01T23:17:55.171Z,1.70
2022-12-01T23:20:34.066Z,1.70
2022-12-01T23:23:04.402Z,1.70
2022-12-01T23:25:34.156Z,1.70
2022-12-01T23:28:04.849Z,1.70
2022-12-01T23:30:32.119Z,1.70
2022-12-01T23:33:23.976Z,1.70
2022-12-01T23:35:57.987Z,1.70
2022-12-01T23:38:35.898Z,1.70
2022-12-01T23:41:15.645Z,1.70
2022-12-01T23:43:44.748Z,1.70
2022-12-01T23:46:22.185Z,1.70
2022-12-01T23:48:52.154Z,1.70
2022-12-01T23:51:24.341Z,1.70
2022-12-01T23:53:53.188Z,1.60
2022-12-01T23:56:22.615Z,1.60
2022-12-01T23:58:51.189Z,1.60
